Time,TemperatureF,DewpointF,PressureIn,WindDirection,WindDirectionDegrees,WindSpeedMPH,WindSpeedGustMPH,Humidity,HourlyPrecipIn,Conditions,Clouds,dailyrainin,SoftwareType,DateUTC
2013-03-24 00:59:00,32.2,20.3,29.74,WNW,292,4.7,-999.0,61,-99.99,,,0.00,Acu-Link.com,2013-03-24 04:59:00,
2013-03-24 01:15:00,32.0,20.5,29.72,WNW,292,3.7,-999.0,62,-99.99,,,0.00,Acu-Link.com,2013-03-24 05:15:00,
2013-03-24 01:30:00,31.6,20.1,29.73,WNW,292,4.2,-999.0,62,-99.99,,,0.00,Acu-Link.com,2013-03-24 05:30:00,
2013-03-24 01:48:00,31.3,20.2,29.73,West,270,4.2,-999.0,63,-99.99,,,0.00,Acu-Link.com,2013-03-24 05:48:00,
2013-03-24 02:03:00,31.3,20.2,29.74,WNW,292,4.2,-999.0,63,-99.99,,,0.00,Acu-Link.com,2013-03-24 06:03:00,
2013-03-24 02:18:00,31.5,20.4,29.73,WNW,292,5.8,-999.0,63,-99.99,,,0.00,Acu-Link.com,2013-03-24 06:18:00,
2013-03-24 02:37:00,31.3,20.6,29.72,NW,315,5.8,-999.0,64,-99.99,,,0.00,Acu-Link.com,2013-03-24 06:37:00,
2013-03-24 02:52:00,31.6,20.8,29.72,NW,315,5.3,-999.0,64,-99.99,,,0.00,Acu-Link.com,2013-03-24 06:52:00,
2013-03-24 03:08:00,31.5,20.7,29.73,WNW,292,5.3,-999.0,64,-99.99,,,0.00,Acu-Link.com,2013-03-24 07:08:00,
2013-03-24 03:23:00,31.6,21.2,29.73,WNW,292,6.3,-999.0,65,-99.99,,,0.00,Acu-Link.com,2013-03-24 07:23:00,
2013-03-24 03:40:00,32.4,21.6,29.71,WNW,292,10.4,-999.0,64,-99.99,,,0.00,Acu-Link.com,2013-03-24 07:40:00,
2013-03-24 03:55:00,32.4,21.6,29.71,WNW,292,7.8,-999.0,64,-99.99,,,0.00,Acu-Link.com,2013-03-24 07:55:00,
2013-03-24 04:10:00,32.4,21.6,29.71,WNW,292,10.4,-999.0,64,-99.99,,,0.00,Acu-Link.com,2013-03-24 08:10:00,
2013-03-24 04:25:00,33.4,22.6,29.71,WNW,292,7.8,-999.0,64,-99.99,,,0.00,Acu-Link.com,2013-03-24 08:25:00,
2013-03-24 04:42:00,32.2,21.4,29.71,WNW,292,6.3,-999.0,64,-99.99,,,0.00,Acu-Link.com,2013-03-24 08:42:00,
2013-03-24 04:59:00,31.8,21.4,29.70,WNW,292,3.7,-999.0,65,-99.99,,,0.00,Acu-Link.com,2013-03-24 08:59:00,
2013-03-24 05:14:00,31.5,21.5,29.71,West,270,3.2,-999.0,66,-99.99,,,0.00,Acu-Link.com,2013-03-24 09:14:00,
2013-03-24 05:29:00,31.3,21.3,29.72,WNW,292,4.2,-999.0,66,-99.99,,,0.00,Acu-Link.com,2013-03-24 09:29:00,
2013-03-24 05:46:00,31.1,21.1,29.71,WNW,292,4.7,-999.0,66,-99.99,,,0.00,Acu-Link.com,2013-03-24 09:46:00,
2013-03-24 06:01:00,31.1,21.4,29.71,West,270,5.8,-999.0,67,-99.99,,,0.00,Acu-Link.com,2013-03-24 10:01:00,
2013-03-24 06:16:00,30.9,21.3,29.72,WNW,292,4.2,-999.0,67,-99.99,,,0.00,Acu-Link.com,2013-03-24 10:16:00,
2013-03-24 06:35:00,30.7,21.1,29.74,West,270,4.2,-999.0,67,-99.99,,,0.00,Acu-Link.com,2013-03-24 10:35:00,
2013-03-24 06:50:00,30.9,21.3,29.74,WNW,292,4.7,-999.0,67,-99.99,,,0.00,Acu-Link.com,2013-03-24 10:50:00,
2013-03-24 07:05:00,30.9,21.3,29.75,SW,225,2.2,-999.0,67,-99.99,,,0.00,Acu-Link.com,2013-03-24 11:05:00,
2013-03-24 07:24:00,30.9,21.6,29.75,WNW,292,0.0,-999.0,68,-99.99,,,0.00,Acu-Link.com,2013-03-24 11:24:00,
2013-03-24 07:39:00,32.0,22.3,29.76,WNW,292,5.3,-999.0,67,-99.99,,,0.00,Acu-Link.com,2013-03-24 11:39:00,
2013-03-24 07:54:00,33.1,22.3,29.76,WNW,292,4.7,-999.0,64,-99.99,,,0.00,Acu-Link.com,2013-03-24 11:54:00,
2013-03-24 08:13:00,34.5,22.5,29.76,WNW,292,5.8,-999.0,61,-99.99,,,0.00,Acu-Link.com,2013-03-24 12:13:00,
2013-03-24 08:28:00,35.6,22.7,29.75,WNW,292,5.3,-999.0,59,-99.99,,,0.00,Acu-Link.com,2013-03-24 12:28:00,
2013-03-24 08:43:00,36.5,22.7,29.75,NW,315,6.3,-999.0,57,-99.99,,,0.00,Acu-Link.com,2013-03-24 12:43:00,
2013-03-24 09:01:00,36.9,22.7,29.75,WNW,292,4.7,-999.0,56,-99.99,,,0.00,Acu-Link.com,2013-03-24 13:01:00,
2013-03-24 09:17:00,37.8,23.1,29.74,WNW,292,5.8,-999.0,55,-99.99,,,0.00,Acu-Link.com,2013-03-24 13:17:00,
2013-03-24 09:47:00,39.0,22.9,29.75,WNW,292,9.9,-999.0,52,-99.99,,,0.00,Acu-Link.com,2013-03-24 13:47:00,
2013-03-24 10:02:00,39.7,23.5,29.74,NW,315,4.7,-999.0,52,-99.99,,,0.00,Acu-Link.com,2013-03-24 14:02:00,
2013-03-24 10:17:00,40.3,23.6,29.76,NNW,337,6.3,-999.0,51,-99.99,,,0.00,Acu-Link.com,2013-03-24 14:17:00,
2013-03-24 10:33:00,40.8,23.6,29.75,NW,315,5.8,-999.0,50,-99.99,,,0.00,Acu-Link.com,2013-03-24 14:33:00,
2013-03-24 10:48:00,41.0,22.8,29.75,NW,315,8.3,-999.0,48,-99.99,,,0.00,Acu-Link.com,2013-03-24 14:48:00,
2013-03-24 11:03:00,41.5,24.3,29.75,NW,315,3.7,-999.0,50,-99.99,,,0.00,Acu-Link.com,2013-03-24 15:03:00,
2013-03-24 11:18:00,39.6,23.0,29.76,WNW,292,5.8,-999.0,51,-99.99,,,0.00,Acu-Link.com,2013-03-24 15:18:00,
2013-03-24 11:33:00,41.5,24.3,29.76,West,270,5.3,-999.0,50,-99.99,,,0.00,Acu-Link.com,2013-03-24 15:33:00,
2013-03-24 11:49:00,42.3,23.0,29.76,WNW,292,6.3,-999.0,46,-99.99,,,0.00,Acu-Link.com,2013-03-24 15:49:00,
2013-03-24 12:04:00,40.6,22.5,29.76,NW,315,4.7,-999.0,48,-99.99,,,0.00,Acu-Link.com,2013-03-24 16:04:00,
2013-03-24 12:19:00,41.0,22.3,29.76,NW,315,5.3,-999.0,47,-99.99,,,0.00,Acu-Link.com,2013-03-24 16:19:00,
2013-03-24 12:34:00,42.4,22.6,29.75,WNW,292,5.3,-999.0,45,-99.99,,,0.00,Acu-Link.com,2013-03-24 16:34:00,
2013-03-24 12:49:00,41.4,23.2,29.76,NW,315,4.2,-999.0,48,-99.99,,,0.00,Acu-Link.com,2013-03-24 16:49:00,
2013-03-24 13:05:00,41.7,23.0,29.76,WNW,292,7.8,-999.0,47,-99.99,,,0.00,Acu-Link.com,2013-03-24 17:05:00,
2013-03-24 13:20:00,43.0,23.1,29.74,NW,315,3.7,-999.0,45,-99.99,,,0.00,Acu-Link.com,2013-03-24 17:20:00,
2013-03-24 13:35:00,41.7,23.0,29.73,NW,315,4.7,-999.0,47,-99.99,,,0.00,Acu-Link.com,2013-03-24 17:35:00,
2013-03-24 13:51:00,42.4,23.1,29.73,WNW,292,4.2,-999.0,46,-99.99,,,0.00,Acu-Link.com,2013-03-24 17:51:00,
2013-03-24 14:21:00,44.2,23.1,29.72,West,270,4.2,-999.0,43,-99.99,,,0.00,Acu-Link.com,2013-03-24 18:21:00,
2013-03-24 14:36:00,43.2,24.3,29.73,West,270,4.2,-999.0,47,-99.99,,,0.00,Acu-Link.com,2013-03-24 18:36:00,
2013-03-24 14:52:00,43.3,23.4,29.72,NW,315,2.7,-999.0,45,-99.99,,,0.00,Acu-Link.com,2013-03-24 18:52:00,
2013-03-24 15:37:00,43.9,22.9,29.70,NW,315,4.2,-999.0,43,-99.99,,,0.00,Acu-Link.com,2013-03-24 19:37:00,
2013-03-24 15:53:00,44.6,24.6,29.69,WNW,292,2.7,-999.0,45,-99.99,,,0.00,Acu-Link.com,2013-03-24 19:53:00,
2013-03-24 16:08:00,43.7,23.2,29.69,WNW,292,5.8,-999.0,44,-99.99,,,0.00,Acu-Link.com,2013-03-24 20:08:00,
2013-03-24 16:23:00,43.7,24.3,29.69,NNW,337,2.2,-999.0,46,-99.99,,,0.00,Acu-Link.com,2013-03-24 20:23:00,
2013-03-24 16:39:00,43.2,23.8,29.69,NNW,337,4.2,-999.0,46,-99.99,,,0.00,Acu-Link.com,2013-03-24 20:39:00,
2013-03-24 16:54:00,42.8,23.5,29.68,WNW,292,4.2,-999.0,46,-99.99,,,0.00,Acu-Link.com,2013-03-24 20:54:00,
2013-03-24 17:09:00,42.8,24.0,29.69,NW,315,2.7,-999.0,47,-99.99,,,0.00,Acu-Link.com,2013-03-24 21:09:00,
2013-03-24 17:24:00,42.8,24.0,29.69,NNW,337,4.2,-999.0,47,-99.99,,,0.00,Acu-Link.com,2013-03-24 21:24:00,
2013-03-24 17:39:00,43.0,24.2,29.69,NW,315,4.7,-999.0,47,-99.99,,,0.00,Acu-Link.com,2013-03-24 21:39:00,
2013-03-24 17:54:00,42.6,23.8,29.70,NW,315,3.2,-999.0,47,-99.99,,,0.00,Acu-Link.com,2013-03-24 21:54:00,
2013-03-24 18:10:00,42.1,23.8,29.70,NNW,337,3.7,-999.0,48,-99.99,,,0.00,Acu-Link.com,2013-03-24 22:10:00,
2013-03-24 18:25:00,41.5,23.8,29.70,NE,45,2.2,-999.0,49,-99.99,,,0.00,Acu-Link.com,2013-03-24 22:25:00,
2013-03-24 18:40:00,41.0,23.8,29.70,West,270,2.2,-999.0,50,-99.99,,,0.00,Acu-Link.com,2013-03-24 22:40:00,
2013-03-24 18:55:00,40.3,23.2,29.70,NNE,22,0.0,-999.0,50,-99.99,,,0.00,Acu-Link.com,2013-03-24 22:55:00,
2013-03-24 19:11:00,38.8,21.8,29.71,NW,315,0.0,-999.0,50,-99.99,,,0.00,Acu-Link.com,2013-03-24 23:11:00,
2013-03-24 19:26:00,37.2,21.7,29.71,NNE,22,0.0,-999.0,53,-99.99,,,0.00,Acu-Link.com,2013-03-24 23:26:00,
2013-03-24 19:41:00,36.1,21.1,29.71,NNE,22,0.0,-999.0,54,-99.99,,,0.00,Acu-Link.com,2013-03-24 23:41:00,
2013-03-24 20:12:00,36.3,22.5,29.72,NNE,22,0.0,-999.0,57,-99.99,,,0.00,Acu-Link.com,2013-03-25 00:12:00,
2013-03-24 20:27:00,37.2,22.5,29.71,NNW,337,1.7,-999.0,55,-99.99,,,0.00,Acu-Link.com,2013-03-25 00:27:00,
2013-03-24 20:43:00,37.0,22.8,29.71,NNW,337,2.7,-999.0,56,-99.99,,,0.00,Acu-Link.com,2013-03-25 00:43:00,
2013-03-24 20:58:00,36.9,22.7,29.71,NNW,337,2.7,-999.0,56,-99.99,,,0.00,Acu-Link.com,2013-03-25 00:58:00,
2013-03-24 21:13:00,37.0,22.8,29.72,NW,315,4.2,-999.0,56,-99.99,,,0.00,Acu-Link.com,2013-03-25 01:13:00,
2013-03-24 21:28:00,37.0,22.8,29.73,NNW,337,1.1,-999.0,56,-99.99,,,0.00,Acu-Link.com,2013-03-25 01:28:00,
2013-03-24 21:43:00,36.1,22.8,29.74,NE,45,0.0,-999.0,58,-99.99,,,0.00,Acu-Link.com,2013-03-25 01:43:00,
2013-03-24 21:58:00,36.3,23.0,29.75,East,90,1.7,-999.0,58,-99.99,,,0.00,Acu-Link.com,2013-03-25 01:58:00,
2013-03-24 22:14:00,36.1,22.8,29.75,East,90,0.0,-999.0,58,-99.99,,,0.00,Acu-Link.com,2013-03-25 02:14:00,
2013-03-24 22:29:00,35.8,22.9,29.75,ENE,67,0.0,-999.0,59,-99.99,,,0.00,Acu-Link.com,2013-03-25 02:29:00,
2013-03-24 22:44:00,35.1,22.6,29.74,ESE,112,0.0,-999.0,60,-99.99,,,0.00,Acu-Link.com,2013-03-25 02:44:00,
2013-03-24 22:59:00,34.2,22.9,29.74,ENE,67,0.0,-999.0,63,-99.99,,,0.00,Acu-Link.com,2013-03-25 02:59:00,
2013-03-24 23:15:00,33.4,22.9,29.73,NNW,337,0.0,-999.0,65,-99.99,,,0.00,Acu-Link.com,2013-03-25 03:15:00,
2013-03-24 23:30:00,32.9,22.8,29.73,NNW,337,0.0,-999.0,66,-99.99,,,0.00,Acu-Link.com,2013-03-25 03:30:00,
2013-03-24 23:45:00,32.7,21.9,29.73,West,270,0.0,-999.0,64,-99.99,,,0.00,Acu-Link.com,2013-03-25 03:45:00,